Strasbourg, France
Current Conditions -  °F | °C
As of 10:00 AM on Wednesday 28 Jan 2015 (Local Time) from LFST Reporting Station
Overcast Overcast  
Wind Chill: 28°   Ceiling: 3400
Heat Index: 36°   Visibility: 6mi
Dew Point: 34°   Wind: 10mph
Humidity: 93%   Direction: 180°S
Pressure: 30.09"   Gusts: NA
Location:  48.58°N, 7.74°E
Report Text: LFST 280900Z AUTO 18009KT 160V220 9999 BKN034 BKN072 OVC08202/01 Q1019
Loading
Personal Weather Stations






























Interactive Weather Map New forecast layout! Learn more

10-Day Weather Forecast

Advertisements
Track Severe Weather on mobile